sensor_id;sensor_type;location;lat;lon;timestamp;pressure;altitude;pressure_sealevel;temperature;humidity
78741;BME280;68062;48.726;9.370;2024-02-21T00:00:57;99809.47;;;3.72;100.00
78741;BME280;68062;48.726;9.370;2024-02-21T00:03:25;99823.16;;;3.76;100.00
78741;BME280;68062;48.726;9.370;2024-02-21T00:05:53;99819.69;;;3.74;100.00
78741;BME280;68062;48.726;9.370;2024-02-21T00:08:20;99816.06;;;3.88;100.00
78741;BME280;68062;48.726;9.370;2024-02-21T00:10:48;99809.09;;;3.84;100.00
78741;BME280;68062;48.726;9.370;2024-02-21T00:13:17;99814.06;;;3.81;100.00
78741;BME280;68062;48.726;9.370;2024-02-21T00:16:04;99815.88;;;3.83;100.00
78741;BME280;68062;48.726;9.370;2024-02-21T00:18:32;99813.38;;;3.85;100.00
78741;BME280;68062;48.726;9.370;2024-02-21T00:21:00;99817.28;;;3.98;100.00
78741;BME280;68062;48.726;9.370;2024-02-21T00:23:28;99796.31;;;3.82;100.00
78741;BME280;68062;48.726;9.370;2024-02-21T00:25:56;99804.88;;;3.85;100.00
78741;BME280;68062;48.726;9.370;2024-02-21T00:28:24;99812.44;;;3.83;100.00
78741;BME280;68062;48.726;9.370;2024-02-21T00:30:53;99789.09;;;3.72;100.00
78741;BME280;68062;48.726;9.370;2024-02-21T00:33:23;99796.19;;;3.79;100.00
78741;BME280;68062;48.726;9.370;2024-02-21T00:35:51;99791.22;;;3.82;100.00
78741;BME280;68062;48.726;9.370;2024-02-21T00:38:19;99768.00;;;3.75;100.00
78741;BME280;68062;48.726;9.370;2024-02-21T00:40:47;99776.09;;;3.86;100.00
78741;BME280;68062;48.726;9.370;2024-02-21T00:43:15;99781.22;;;3.87;100.00
78741;BME280;68062;48.726;9.370;2024-02-21T00:45:43;99787.13;;;3.86;100.00
78741;BME280;68062;48.726;9.370;2024-02-21T00:48:10;99782.03;;;3.86;100.00
78741;BME280;68062;48.726;9.370;2024-02-21T00:50:40;99778.69;;;3.87;100.00
78741;BME280;68062;48.726;9.370;2024-02-21T00:53:08;99771.31;;;3.93;100.00
78741;BME280;68062;48.726;9.370;2024-02-21T00:55:37;99774.94;;;4.00;100.00
78741;BME280;68062;48.726;9.370;2024-02-21T00:58:05;99769.19;;;4.04;100.00
78741;BME280;68062;48.726;9.370;2024-02-21T01:00:33;99773.59;;;4.08;100.00
78741;BME280;68062;48.726;9.370;2024-02-21T01:03:00;99768.50;;;4.08;100.00
78741;BME280;68062;48.726;9.370;2024-02-21T01:05:29;99765.22;;;4.11;100.00
78741;BME280;68062;48.726;9.370;2024-02-21T01:07:58;99763.59;;;4.13;100.00
78741;BME280;68062;48.726;9.370;2024-02-21T01:10:28;99761.06;;;4.13;100.00
78741;BME280;68062;48.726;9.370;2024-02-21T01:12:57;99757.50;;;4.09;100.00
78741;BME280;68062;48.726;9.370;2024-02-21T01:15:25;99756.94;;;4.17;100.00
78741;BME280;68062;48.726;9.370;2024-02-21T01:17:53;99720.75;;;4.03;100.00
78741;BME280;68062;48.726;9.370;2024-02-21T01:20:22;99749.66;;;4.26;100.00
78741;BME280;68062;48.726;9.370;2024-02-21T01:22:50;99733.41;;;4.22;100.00
78741;BME280;68062;48.726;9.370;2024-02-21T01:25:19;99703.91;;;4.06;100.00
78741;BME280;68062;48.726;9.370;2024-02-21T01:27:48;99742.91;;;4.26;100.00
78741;BME280;68062;48.726;9.370;2024-02-21T01:30:16;99732.47;;;4.20;100.00
78741;BME280;68062;48.726;9.370;2024-02-21T01:32:43;99728.25;;;4.21;100.00
78741;BME280;68062;48.726;9.370;2024-02-21T01:35:11;99721.28;;;4.17;100.00
78741;BME280;68062;48.726;9.370;2024-02-21T01:37:39;99714.53;;;4.17;100.00
78741;BME280;68062;48.726;9.370;2024-02-21T01:40:08;99718.06;;;4.21;100.00
78741;BME280;68062;48.726;9.370;2024-02-21T01:42:39;99707.03;;;4.20;100.00
78741;BME280;68062;48.726;9.370;2024-02-21T01:45:08;99706.25;;;4.23;100.00
78741;BME280;68062;48.726;9.370;2024-02-21T01:47:36;99701.25;;;4.24;100.00
78741;BME280;68062;48.726;9.370;2024-02-21T01:50:05;99692.59;;;4.21;100.00
78741;BME280;68062;48.726;9.370;2024-02-21T01:52:33;99669.16;;;4.07;100.00
78741;BME280;68062;48.726;9.370;2024-02-21T01:55:03;99689.19;;;4.20;100.00
78741;BME280;68062;48.726;9.370;2024-02-21T01:57:32;99681.56;;;4.20;100.00
78741;BME280;68062;48.726;9.370;2024-02-21T02:00:01;99678.13;;;4.20;100.00
78741;BME280;68062;48.726;9.370;2024-02-21T02:02:37;99654.88;;;4.10;100.00
78741;BME280;68062;48.726;9.370;2024-02-21T02:05:07;99661.69;;;4.11;100.00
78741;BME280;68062;48.726;9.370;2024-02-21T02:07:35;99670.44;;;4.18;100.00
78741;BME280;68062;48.726;9.370;2024-02-21T02:10:04;99661.94;;;4.18;100.00
78741;BME280;68062;48.726;9.370;2024-02-21T02:12:32;99662.97;;;4.23;100.00
78741;BME280;68062;48.726;9.370;2024-02-21T02:15:02;99660.53;;;4.26;100.00
78741;BME280;68062;48.726;9.370;2024-02-21T02:17:31;99637.22;;;4.15;100.00
78741;BME280;68062;48.726;9.370;2024-02-21T02:19:59;99657.06;;;4.24;100.00
78741;BME280;68062;48.726;9.370;2024-02-21T02:22:28;99639.47;;;4.07;100.00
78741;BME280;68062;48.726;9.370;2024-02-21T02:24:58;99646.53;;;4.15;100.00
78741;BME280;68062;48.726;9.370;2024-02-21T02:27:26;99649.31;;;4.21;100.00
78741;BME280;68062;48.726;9.370;2024-02-21T02:29:54;99637.41;;;4.20;100.00
78741;BME280;68062;48.726;9.370;2024-02-21T02:32:21;99640.75;;;4.19;100.00
78741;BME280;68062;48.726;9.370;2024-02-21T02:34:49;99634.16;;;4.24;100.00
78741;BME280;68062;48.726;9.370;2024-02-21T02:37:18;99624.97;;;4.27;100.00
78741;BME280;68062;48.726;9.370;2024-02-21T02:39:45;99634.44;;;4.32;100.00
78741;BME280;68062;48.726;9.370;2024-02-21T02:42:15;99625.94;;;4.31;100.00
78741;BME280;68062;48.726;9.370;2024-02-21T02:44:43;99625.13;;;4.32;100.00
78741;BME280;68062;48.726;9.370;2024-02-21T02:47:10;99617.47;;;4.32;100.00
78741;BME280;68062;48.726;9.370;2024-02-21T02:49:38;99621.13;;;4.39;100.00
78741;BME280;68062;48.726;9.370;2024-02-21T02:52:06;99614.75;;;4.50;100.00
78741;BME280;68062;48.726;9.370;2024-02-21T02:54:34;99606.13;;;4.47;100.00
78741;BME280;68062;48.726;9.370;2024-02-21T02:57:02;99607.81;;;4.46;100.00
78741;BME280;68062;48.726;9.370;2024-02-21T02:59:32;99612.09;;;4.47;100.00
78741;BME280;68062;48.726;9.370;2024-02-21T03:02:00;99595.94;;;4.47;100.00
78741;BME280;68062;48.726;9.370;2024-02-21T03:04:29;99593.47;;;4.48;100.00
78741;BME280;68062;48.726;9.370;2024-02-21T03:06:57;99574.81;;;4.49;100.00
78741;BME280;68062;48.726;9.370;2024-02-21T03:09:25;99585.25;;;4.57;100.00
78741;BME280;68062;48.726;9.370;2024-02-21T03:11:54;99579.34;;;4.58;100.00
78741;BME280;68062;48.726;9.370;2024-02-21T03:14:24;99577.03;;;4.64;100.00
78741;BME280;68062;48.726;9.370;2024-02-21T03:16:53;99572.03;;;4.67;100.00
78741;BME280;68062;48.726;9.370;2024-02-21T03:19:20;99551.53;;;4.64;100.00
78741;BME280;68062;48.726;9.370;2024-02-21T03:21:49;99564.56;;;4.72;100.00
78741;BME280;68062;48.726;9.370;2024-02-21T03:24:18;99551.75;;;4.70;100.00
78741;BME280;68062;48.726;9.370;2024-02-21T03:26:46;99544.91;;;4.69;100.00
78741;BME280;68062;48.726;9.370;2024-02-21T03:29:14;99551.66;;;4.67;100.00
78741;BME280;68062;48.726;9.370;2024-02-21T03:31:43;99547.16;;;4.60;100.00
78741;BME280;68062;48.726;9.370;2024-02-21T03:34:12;99536.59;;;4.49;100.00
78741;BME280;68062;48.726;9.370;2024-02-21T03:36:40;99553.53;;;4.49;100.00
78741;BME280;68062;48.726;9.370;2024-02-21T03:39:08;99557.72;;;4.47;100.00
78741;BME280;68062;48.726;9.370;2024-02-21T03:41:36;99561.09;;;4.46;100.00
78741;BME280;68062;48.726;9.370;2024-02-21T03:44:04;99565.00;;;4.36;100.00
78741;BME280;68062;48.726;9.370;2024-02-21T03:46:32;99552.63;;;4.22;100.00
78741;BME280;68062;48.726;9.370;2024-02-21T03:49:00;99557.72;;;4.47;100.00
78741;BME280;68062;48.726;9.370;2024-02-21T03:51:29;99549.94;;;4.42;100.00
78741;BME280;68062;48.726;9.370;2024-02-21T03:53:57;99524.28;;;4.13;100.00
78741;BME280;68062;48.726;9.370;2024-02-21T03:56:25;99533.00;;;4.20;100.00
78741;BME280;68062;48.726;9.370;2024-02-21T03:58:52;99527.91;;;4.20;100.00
78741;BME280;68062;48.726;9.370;2024-02-21T04:01:20;99545.63;;;4.17;100.00
78741;BME280;68062;48.726;9.370;2024-02-21T04:03:49;99545.63;;;4.17;100.00
78741;BME280;68062;48.726;9.370;2024-02-21T04:06:16;99549.97;;;4.19;100.00
78741;BME280;68062;48.726;9.370;2024-02-21T04:08:47;99548.72;;;4.08;100.00
78741;BME280;68062;48.726;9.370;2024-02-21T04:11:14;99539.34;;;4.07;100.00
78741;BME280;68062;48.726;9.370;2024-02-21T04:13:43;99541.78;;;4.04;100.00
78741;BME280;68062;48.726;9.370;2024-02-21T04:16:11;99531.41;;;3.99;100.00
78741;BME280;68062;48.726;9.370;2024-02-21T04:18:39;99530.91;;;3.85;100.00
78741;BME280;68062;48.726;9.370;2024-02-21T04:21:07;99525.00;;;3.86;100.00
78741;BME280;68062;48.726;9.370;2024-02-21T04:23:35;99519.22;;;3.90;100.00
78741;BME280;68062;48.726;9.370;2024-02-21T04:26:05;99507.19;;;3.86;100.00
78741;BME280;68062;48.726;9.370;2024-02-21T04:28:33;99504.06;;;3.93;100.00
78741;BME280;68062;48.726;9.370;2024-02-21T04:31:00;99488.53;;;3.86;100.00
78741;BME280;68062;48.726;9.370;2024-02-21T04:33:28;99487.03;;;3.91;100.00
78741;BME280;68062;48.726;9.370;2024-02-21T04:35:56;99487.88;;;3.91;100.00
78741;BME280;68062;48.726;9.370;2024-02-21T04:38:25;99477.53;;;3.87;100.00
78741;BME280;68062;48.726;9.370;2024-02-21T04:40:52;99478.06;;;3.78;100.00
78741;BME280;68062;48.726;9.370;2024-02-21T04:43:22;99478.41;;;3.64;100.00
78741;BME280;68062;48.726;9.370;2024-02-21T04:45:50;99485.09;;;3.62;100.00
78741;BME280;68062;48.726;9.370;2024-02-21T04:48:20;99483.84;;;3.51;100.00
78741;BME280;68062;48.726;9.370;2024-02-21T04:50:48;99483.69;;;3.46;100.00
78741;BME280;68062;48.726;9.370;2024-02-21T04:53:16;99485.06;;;3.38;100.00
78741;BME280;68062;48.726;9.370;2024-02-21T04:55:44;99480.47;;;3.29;100.00
78741;BME280;68062;48.726;9.370;2024-02-21T04:58:12;99487.13;;;3.26;100.00
78741;BME280;68062;48.726;9.370;2024-02-21T05:00:41;99471.50;;;3.16;100.00
78741;BME280;68062;48.726;9.370;2024-02-21T05:03:08;99480.50;;;3.08;100.00
78741;BME280;68062;48.726;9.370;2024-02-21T05:05:37;99479.38;;;3.01;100.00
78741;BME280;68062;48.726;9.370;2024-02-21T05:08:05;99490.19;;;2.96;100.00
78741;BME280;68062;48.726;9.370;2024-02-21T05:10:33;99497.28;;;3.04;100.00
78741;BME280;68062;48.726;9.370;2024-02-21T05:13:01;99503.69;;;2.94;100.00
78741;BME280;68062;48.726;9.370;2024-02-21T05:15:29;99487.56;;;2.73;100.00
78741;BME280;68062;48.726;9.370;2024-02-21T05:17:59;99500.97;;;2.70;100.00
78741;BME280;68062;48.726;9.370;2024-02-21T05:20:28;99505.88;;;2.65;100.00
78741;BME280;68062;48.726;9.370;2024-02-21T05:22:56;99507.88;;;2.52;100.00
78741;BME280;68062;48.726;9.370;2024-02-21T05:25:24;99502.38;;;2.42;100.00
78741;BME280;68062;48.726;9.370;2024-02-21T05:27:52;99499.47;;;2.33;100.00
78741;BME280;68062;48.726;9.370;2024-02-21T05:30:22;99480.75;;;2.31;100.00
78741;BME280;68062;48.726;9.370;2024-02-21T05:32:49;99493.63;;;2.35;100.00
78741;BME280;68062;48.726;9.370;2024-02-21T05:35:19;99489.97;;;2.29;100.00
78741;BME280;68062;48.726;9.370;2024-02-21T05:37:48;99481.84;;;2.16;100.00
78741;BME280;68062;48.726;9.370;2024-02-21T05:40:19;99457.38;;;2.18;100.00
78741;BME280;68062;48.726;9.370;2024-02-21T05:42:47;99430.06;;;1.93;100.00
78741;BME280;68062;48.726;9.370;2024-02-21T05:45:14;99457.00;;;2.09;100.00
78741;BME280;68062;48.726;9.370;2024-02-21T05:47:43;99460.78;;;1.99;100.00
78741;BME280;68062;48.726;9.370;2024-02-21T05:50:11;99447.63;;;1.88;100.00
78741;BME280;68062;48.726;9.370;2024-02-21T05:52:40;99464.06;;;1.97;100.00
78741;BME280;68062;48.726;9.370;2024-02-21T05:55:08;99442.44;;;1.85;100.00
78741;BME280;68062;48.726;9.370;2024-02-21T05:57:36;99445.50;;;1.98;100.00
78741;BME280;68062;48.726;9.370;2024-02-21T06:00:05;99448.72;;;1.94;100.00
78741;BME280;68062;48.726;9.370;2024-02-21T06:02:37;99445.09;;;1.88;100.00
78741;BME280;68062;48.726;9.370;2024-02-21T06:05:07;99439.22;;;1.89;100.00
78741;BME280;68062;48.726;9.370;2024-02-21T06:07:35;99428.94;;;1.86;100.00
78741;BME280;68062;48.726;9.370;2024-02-21T06:10:08;99444.44;;;1.93;100.00
78741;BME280;68062;48.726;9.370;2024-02-21T06:12:36;99418.44;;;1.79;100.00
78741;BME280;68062;48.726;9.370;2024-02-21T06:15:04;99434.81;;;1.85;100.00
78741;BME280;68062;48.726;9.370;2024-02-21T06:17:33;99434.47;;;1.77;100.00
78741;BME280;68062;48.726;9.370;2024-02-21T06:20:01;99439.81;;;1.84;100.00
78741;BME280;68062;48.726;9.370;2024-02-21T06:22:30;99448.34;;;1.86;100.00
78741;BME280;68062;48.726;9.370;2024-02-21T06:24:58;99448.34;;;1.86;100.00
78741;BME280;68062;48.726;9.370;2024-02-21T06:27:27;99452.16;;;1.76;100.00
78741;BME280;68062;48.726;9.370;2024-02-21T06:29:55;99440.16;;;1.72;100.00
78741;BME280;68062;48.726;9.370;2024-02-21T06:32:23;99440.19;;;1.73;100.00
78741;BME280;68062;48.726;9.370;2024-02-21T06:34:52;99432.25;;;1.66;100.00
78741;BME280;68062;48.726;9.370;2024-02-21T06:37:19;99439.34;;;1.73;100.00
78741;BME280;68062;48.726;9.370;2024-02-21T06:39:47;99443.94;;;1.82;100.00
78741;BME280;68062;48.726;9.370;2024-02-21T06:42:15;99452.63;;;1.87;100.00
78741;BME280;68062;48.726;9.370;2024-02-21T06:44:45;99443.56;;;1.92;100.00
78741;BME280;68062;48.726;9.370;2024-02-21T06:47:13;99453.84;;;1.95;100.00
78741;BME280;68062;48.726;9.370;2024-02-21T06:49:41;99457.44;;;2.00;100.00
78741;BME280;68062;48.726;9.370;2024-02-21T06:52:09;99453.38;;;2.04;100.00
78741;BME280;68062;48.726;9.370;2024-02-21T06:54:36;99455.50;;;2.14;100.00
78741;BME280;68062;48.726;9.370;2024-02-21T06:57:06;99456.75;;;2.24;100.00
78741;BME280;68062;48.726;9.370;2024-02-21T06:59:34;99446.84;;;2.50;100.00
78741;BME280;68062;48.726;9.370;2024-02-21T07:02:03;99446.91;;;2.52;100.00
78741;BME280;68062;48.726;9.370;2024-02-21T07:04:32;99444.56;;;2.56;100.00
78741;BME280;68062;48.726;9.370;2024-02-21T07:07:00;99446.50;;;2.62;100.00
78741;BME280;68062;48.726;9.370;2024-02-21T07:09:28;99428.00;;;2.66;100.00
78741;BME280;68062;48.726;9.370;2024-02-21T07:11:58;99434.34;;;2.76;100.00
78741;BME280;68062;48.726;9.370;2024-02-21T07:14:27;99446.66;;;2.88;100.00
78741;BME280;68062;48.726;9.370;2024-02-21T07:16:57;99445.28;;;2.96;100.00
78741;BME280;68062;48.726;9.370;2024-02-21T07:19:26;99441.56;;;3.09;100.00
78741;BME280;68062;48.726;9.370;2024-02-21T07:21:54;99437.81;;;3.22;100.00
78741;BME280;68062;48.726;9.370;2024-02-21T07:24:21;99433.28;;;3.36;100.00
78741;BME280;68062;48.726;9.370;2024-02-21T07:26:49;99423.44;;;3.45;100.00
78741;BME280;68062;48.726;9.370;2024-02-21T07:29:17;99415.41;;;3.57;100.00
78741;BME280;68062;48.726;9.370;2024-02-21T07:31:45;99413.25;;;3.68;100.00
78741;BME280;68062;48.726;9.370;2024-02-21T07:34:15;99421.56;;;3.87;100.00
78741;BME280;68062;48.726;9.370;2024-02-21T07:36:45;99419.69;;;4.07;100.00
78741;BME280;68062;48.726;9.370;2024-02-21T07:39:13;99422.31;;;4.34;100.00
78741;BME280;68062;48.726;9.370;2024-02-21T07:41:41;99420.47;;;4.56;100.00
78741;BME280;68062;48.726;9.370;2024-02-21T07:44:11;99423.69;;;4.76;100.00
78741;BME280;68062;48.726;9.370;2024-02-21T07:46:39;99421.84;;;4.99;100.00
78741;BME280;68062;48.726;9.370;2024-02-21T07:49:07;99422.59;;;5.23;100.00
78741;BME280;68062;48.726;9.370;2024-02-21T07:51:36;99410.03;;;5.59;100.00
78741;BME280;68062;48.726;9.370;2024-02-21T07:54:05;99408.19;;;5.86;100.00
78741;BME280;68062;48.726;9.370;2024-02-21T07:56:35;99402.81;;;6.06;100.00
78741;BME280;68062;48.726;9.370;2024-02-21T07:59:03;99382.69;;;6.18;100.00
78741;BME280;68062;48.726;9.370;2024-02-21T08:01:31;99379.75;;;6.36;100.00
78741;BME280;68062;48.726;9.370;2024-02-21T08:03:59;99378.50;;;6.55;100.00
78741;BME280;68062;48.726;9.370;2024-02-21T08:06:27;99372.19;;;6.77;100.00
78741;BME280;68062;48.726;9.370;2024-02-21T08:08:54;99373.56;;;7.00;97.30
78741;BME280;68062;48.726;9.370;2024-02-21T08:11:25;99362.91;;;7.19;95.73
78741;BME280;68062;48.726;9.370;2024-02-21T08:13:53;99364.84;;;7.31;92.79
78741;BME280;68062;48.726;9.370;2024-02-21T08:16:21;99369.38;;;7.43;90.92
78741;BME280;68062;48.726;9.370;2024-02-21T08:18:49;99362.97;;;7.64;89.65
78741;BME280;68062;48.726;9.370;2024-02-21T08:21:17;99358.97;;;7.80;88.52
78741;BME280;68062;48.726;9.370;2024-02-21T08:23:45;99366.25;;;8.04;87.03
78741;BME280;68062;48.726;9.370;2024-02-21T08:26:18;99359.72;;;8.20;85.61
78741;BME280;68062;48.726;9.370;2024-02-21T08:28:47;99351.50;;;8.42;83.13
78741;BME280;68062;48.726;9.370;2024-02-21T08:31:18;99349.59;;;8.80;80.80
78741;BME280;68062;48.726;9.370;2024-02-21T08:33:47;99346.44;;;9.02;80.34
78741;BME280;68062;48.726;9.370;2024-02-21T08:36:17;99350.16;;;9.22;77.79
78741;BME280;68062;48.726;9.370;2024-02-21T08:38:46;99344.09;;;9.17;77.02
78741;BME280;68062;48.726;9.370;2024-02-21T08:41:14;99346.88;;;9.34;76.21
78741;BME280;68062;48.726;9.370;2024-02-21T08:43:42;99348.00;;;9.58;75.22
78741;BME280;68062;48.726;9.370;2024-02-21T08:46:12;99341.38;;;9.79;73.82
78741;BME280;68062;48.726;9.370;2024-02-21T08:48:39;99349.31;;;10.00;72.37
78741;BME280;68062;48.726;9.370;2024-02-21T08:51:07;99334.84;;;10.10;71.85
78741;BME280;68062;48.726;9.370;2024-02-21T08:53:35;99334.13;;;10.28;70.33
78741;BME280;68062;48.726;9.370;2024-02-21T08:56:05;99322.16;;;10.30;69.57
78741;BME280;68062;48.726;9.370;2024-02-21T08:58:35;99325.66;;;10.39;68.44
78741;BME280;68062;48.726;9.370;2024-02-21T09:01:04;99326.50;;;10.36;67.87
78741;BME280;68062;48.726;9.370;2024-02-21T09:03:33;99323.88;;;10.27;67.10
78741;BME280;68062;48.726;9.370;2024-02-21T09:06:01;99321.81;;;9.93;68.02
78741;BME280;68062;48.726;9.370;2024-02-21T09:08:29;99319.31;;;9.99;69.53
78741;BME280;68062;48.726;9.370;2024-02-21T09:10:57;99314.25;;;10.07;68.95
78741;BME280;68062;48.726;9.370;2024-02-21T09:13:26;99293.75;;;10.13;68.89
78741;BME280;68062;48.726;9.370;2024-02-21T09:15:54;99295.47;;;10.16;68.02
78741;BME280;68062;48.726;9.370;2024-02-21T09:18:21;99284.28;;;10.08;68.81
78741;BME280;68062;48.726;9.370;2024-02-21T09:20:50;99289.38;;;10.00;69.15
78741;BME280;68062;48.726;9.370;2024-02-21T09:23:18;99286.03;;;10.12;67.89
78741;BME280;68062;48.726;9.370;2024-02-21T09:25:47;99281.00;;;10.26;67.64
78741;BME280;68062;48.726;9.370;2024-02-21T09:28:14;99252.69;;;10.21;67.12
78741;BME280;68062;48.726;9.370;2024-02-21T09:30:42;99285.47;;;10.45;67.39
78741;BME280;68062;48.726;9.370;2024-02-21T09:33:10;99276.94;;;10.50;66.04
78741;BME280;68062;48.726;9.370;2024-02-21T09:35:48;99262.38;;;10.56;66.58
78741;BME280;68062;48.726;9.370;2024-02-21T09:38:17;99274.38;;;10.54;66.57
78741;BME280;68062;48.726;9.370;2024-02-21T09:40:45;99259.91;;;10.75;66.33
78741;BME280;68062;48.726;9.370;2024-02-21T09:43:17;99256.56;;;10.88;65.51
78741;BME280;68062;48.726;9.370;2024-02-21T09:45:48;99260.03;;;11.04;65.07
78741;BME280;68062;48.726;9.370;2024-02-21T09:48:39;99255.84;;;11.24;64.62
78741;BME280;68062;48.726;9.370;2024-02-21T09:51:15;99252.41;;;11.22;63.14
78741;BME280;68062;48.726;9.370;2024-02-21T09:53:45;99251.59;;;11.41;62.33
78741;BME280;68062;48.726;9.370;2024-02-21T09:56:28;99245.56;;;11.33;60.98
78741;BME280;68062;48.726;9.370;2024-02-21T09:58:57;99239.50;;;11.09;61.89
78741;BME280;68062;48.726;9.370;2024-02-21T10:01:25;99237.84;;;11.36;61.64
78741;BME280;68062;48.726;9.370;2024-02-21T10:04:01;99223.31;;;11.71;61.37
78741;BME280;68062;48.726;9.370;2024-02-21T10:06:30;99229.34;;;12.15;60.81
78741;BME280;68062;48.726;9.370;2024-02-21T10:09:00;99226.59;;;12.86;59.03
78741;BME280;68062;48.726;9.370;2024-02-21T10:11:27;99231.47;;;13.50;56.42
78741;BME280;68062;48.726;9.370;2024-02-21T10:14:03;99218.13;;;14.09;53.60
78741;BME280;68062;48.726;9.370;2024-02-21T10:16:32;99212.72;;;14.34;51.09
78741;BME280;68062;48.726;9.370;2024-02-21T10:19:01;99212.91;;;14.13;49.95
78741;BME280;68062;48.726;9.370;2024-02-21T10:21:30;99201.56;;;13.12;51.33
78741;BME280;68062;48.726;9.370;2024-02-21T10:24:00;99205.94;;;12.94;53.57
78741;BME280;68062;48.726;9.370;2024-02-21T10:26:28;99194.78;;;12.81;52.37
78741;BME280;68062;48.726;9.370;2024-02-21T10:28:55;99183.22;;;13.52;52.21
78741;BME280;68062;48.726;9.370;2024-02-21T10:31:25;99186.00;;;13.21;51.49
78741;BME280;68062;48.726;9.370;2024-02-21T10:33:55;99170.72;;;12.80;52.57
78741;BME280;68062;48.726;9.370;2024-02-21T10:36:24;99172.13;;;13.34;52.08
78741;BME280;68062;48.726;9.370;2024-02-21T10:38:53;99178.09;;;13.46;51.32
78741;BME280;68062;48.726;9.370;2024-02-21T10:41:23;99171.47;;;13.04;51.30
78741;BME280;68062;48.726;9.370;2024-02-21T10:43:52;99170.66;;;12.91;51.91
78741;BME280;68062;48.726;9.370;2024-02-21T10:46:23;99166.31;;;13.00;51.15
78741;BME280;68062;48.726;9.370;2024-02-21T10:49:02;99156.88;;;12.92;51.19
78741;BME280;68062;48.726;9.370;2024-02-21T10:51:33;99156.00;;;12.98;51.68
78741;BME280;68062;48.726;9.370;2024-02-21T10:54:12;99154.22;;;13.09;52.66
78741;BME280;68062;48.726;9.370;2024-02-21T10:56:43;99145.69;;;12.98;52.55
78741;BME280;68062;48.726;9.370;2024-02-21T10:59:13;99144.69;;;13.24;52.04
78741;BME280;68062;48.726;9.370;2024-02-21T11:01:41;99135.03;;;13.49;49.82
78741;BME280;68062;48.726;9.370;2024-02-21T11:04:09;99131.69;;;13.32;49.96
78741;BME280;68062;48.726;9.370;2024-02-21T11:06:41;99123.91;;;13.35;52.08
78741;BME280;68062;48.726;9.370;2024-02-21T11:09:10;99118.75;;;13.35;50.52
78741;BME280;68062;48.726;9.370;2024-02-21T11:11:44;99112.91;;;13.09;50.99
78741;BME280;68062;48.726;9.370;2024-02-21T11:14:18;99068.41;;;12.65;50.39
78741;BME280;68062;48.726;9.370;2024-02-21T11:16:48;99105.00;;;13.30;49.77
78741;BME280;68062;48.726;9.370;2024-02-21T11:19:20;99094.66;;;13.31;48.61
78741;BME280;68062;48.726;9.370;2024-02-21T11:21:49;99088.75;;;13.15;48.59
78741;BME280;68062;48.726;9.370;2024-02-21T11:24:26;99082.53;;;13.47;48.79
78741;BME280;68062;48.726;9.370;2024-02-21T11:27:08;99069.63;;;13.39;50.04
78741;BME280;68062;48.726;9.370;2024-02-21T11:29:40;99074.88;;;13.30;49.04
78741;BME280;68062;48.726;9.370;2024-02-21T11:32:09;99061.84;;;13.47;49.37
78741;BME280;68062;48.726;9.370;2024-02-21T11:34:37;99056.72;;;13.43;48.98
78741;BME280;68062;48.726;9.370;2024-02-21T11:37:13;99057.44;;;13.57;49.82
78741;BME280;68062;48.726;9.370;2024-02-21T11:39:42;99037.47;;;13.75;48.99
78741;BME280;68062;48.726;9.370;2024-02-21T11:42:11;99034.72;;;13.90;48.67
78741;BME280;68062;48.726;9.370;2024-02-21T11:44:40;99028.84;;;13.76;48.61
78741;BME280;68062;48.726;9.370;2024-02-21T11:47:09;99030.41;;;13.91;48.91
78741;BME280;68062;48.726;9.370;2024-02-21T11:49:39;99024.09;;;14.17;47.69
78741;BME280;68062;48.726;9.370;2024-02-21T11:52:07;99014.03;;;13.90;46.88
78741;BME280;68062;48.726;9.370;2024-02-21T11:54:34;99010.50;;;13.97;47.71
78741;BME280;68062;48.726;9.370;2024-02-21T11:57:02;99000.09;;;14.05;47.92
78741;BME280;68062;48.726;9.370;2024-02-21T11:59:33;98991.19;;;14.26;47.92
78741;BME280;68062;48.726;9.370;2024-02-21T12:02:01;98984.34;;;14.24;46.96
78741;BME280;68062;48.726;9.370;2024-02-21T12:04:31;98983.13;;;14.50;47.18
78741;BME280;68062;48.726;9.370;2024-02-21T12:06:59;98983.28;;;14.37;46.77
78741;BME280;68062;48.726;9.370;2024-02-21T12:09:27;98980.84;;;14.28;47.62
78741;BME280;68062;48.726;9.370;2024-02-21T12:11:58;98977.84;;;13.90;45.92
78741;BME280;68062;48.726;9.370;2024-02-21T12:14:28;98973.22;;;13.39;47.17
78741;BME280;68062;48.726;9.370;2024-02-21T12:16:58;98967.47;;;13.09;47.88
78741;BME280;68062;48.726;9.370;2024-02-21T12:19:29;98962.97;;;13.30;48.49
78741;BME280;68062;48.726;9.370;2024-02-21T12:21:58;98963.91;;;13.19;48.84
78741;BME280;68062;48.726;9.370;2024-02-21T12:24:28;98923.97;;;12.61;48.06
78741;BME280;68062;48.726;9.370;2024-02-21T12:26:57;98948.69;;;12.90;48.51
78741;BME280;68062;48.726;9.370;2024-02-21T12:29:27;98948.53;;;13.07;48.29
78741;BME280;68062;48.726;9.370;2024-02-21T12:31:55;98943.38;;;13.07;47.01
78741;BME280;68062;48.726;9.370;2024-02-21T12:34:25;98936.50;;;13.06;48.56
78741;BME280;68062;48.726;9.370;2024-02-21T12:37:10;98928.38;;;13.46;47.11
78741;BME280;68062;48.726;9.370;2024-02-21T12:39:40;98927.25;;;13.71;46.88
78741;BME280;68062;48.726;9.370;2024-02-21T12:42:08;98917.75;;;13.73;45.30
78741;BME280;68062;48.726;9.370;2024-02-21T12:44:38;98909.59;;;14.05;44.61
78741;BME280;68062;48.726;9.370;2024-02-21T12:47:06;98902.66;;;14.07;45.43
78741;BME280;68062;48.726;9.370;2024-02-21T12:49:36;98891.13;;;14.30;45.71
78741;BME280;68062;48.726;9.370;2024-02-21T12:52:08;98896.22;;;14.36;45.22
78741;BME280;68062;48.726;9.370;2024-02-21T12:54:36;98883.91;;;13.91;43.29
78741;BME280;68062;48.726;9.370;2024-02-21T12:57:04;98883.63;;;13.43;44.93
78741;BME280;68062;48.726;9.370;2024-02-21T12:59:32;98842.88;;;12.90;46.07
78741;BME280;68062;48.726;9.370;2024-02-21T13:02:00;98865.16;;;12.99;46.58
78741;BME280;68062;48.726;9.370;2024-02-21T13:04:28;98870.13;;;13.17;46.22
78741;BME280;68062;48.726;9.370;2024-02-21T13:06:57;98845.72;;;13.46;46.02
78741;BME280;68062;48.726;9.370;2024-02-21T13:09:25;98848.03;;;13.66;45.71